createdAt,value
2022-10-13T00:00:32.827Z,101918.16
2022-10-13T00:03:00.059Z,101913.88
2022-10-13T00:05:26.656Z,101913.94
2022-10-13T00:07:53.161Z,101906.84
2022-10-13T00:10:19.638Z,101903.41
2022-10-13T00:12:46.134Z,101899.00
2022-10-13T00:15:14.054Z,101891.97
2022-10-13T00:17:40.542Z,101894.75
2022-10-13T00:20:08.220Z,101902.00
2022-10-13T00:22:34.901Z,101909.31
2022-10-13T00:25:02.243Z,101901.25
2022-10-13T00:27:28.875Z,101904.97
2022-10-13T00:29:55.417Z,101913.16
2022-10-13T00:32:23.192Z,101904.31
2022-10-13T00:34:49.645Z,101904.41
2022-10-13T00:37:16.073Z,101904.50
2022-10-13T00:39:42.537Z,101895.69
2022-10-13T00:42:11.860Z,101897.63
2022-10-13T00:45:03.276Z,101901.25
2022-10-13T00:47:35.947Z,101896.94
2022-10-13T00:50:02.962Z,101892.53
2022-10-13T00:52:31.561Z,101892.59
2022-10-13T00:54:59.598Z,101889.94
2022-10-13T00:57:26.681Z,101895.50
2022-10-13T00:59:53.400Z,101884.84
2022-10-13T01:02:20.490Z,101893.00
2022-10-13T01:04:48.802Z,101890.41
2022-10-13T01:07:16.182Z,101902.97
2022-10-13T01:09:42.792Z,101900.34
2022-10-13T01:12:17.464Z,101904.03
2022-10-13T01:14:49.521Z,101895.25
2022-10-13T01:17:23.670Z,101892.59
2022-10-13T01:20:13.569Z,101890.03
2022-10-13T01:22:54.712Z,101887.34
2022-10-13T01:25:39.228Z,101889.22
2022-10-13T01:28:27.204Z,101875.06
2022-10-13T01:31:01.512Z,101884.94
2022-10-13T01:33:37.683Z,101881.47
2022-10-13T01:36:13.316Z,101873.53
2022-10-13T01:38:47.898Z,101870.94
2022-10-13T01:41:19.157Z,101871.88
2022-10-13T01:43:50.703Z,101866.63
2022-10-13T01:46:21.977Z,101855.97
2022-10-13T01:48:51.959Z,101863.16
2022-10-13T01:51:20.308Z,101856.91
2022-10-13T01:53:48.157Z,101855.19
2022-10-13T01:56:14.585Z,101847.13
2022-10-13T01:58:41.225Z,101837.41
2022-10-13T02:01:21.996Z,101838.34
2022-10-13T02:03:57.724Z,101833.06
2022-10-13T02:06:31.828Z,101836.59
2022-10-13T02:09:03.117Z,101835.75
2022-10-13T02:11:29.551Z,101828.75
2022-10-13T02:14:01.927Z,101824.34
2022-10-13T02:16:31.335Z,101823.47
2022-10-13T02:19:00.025Z,101820.88
2022-10-13T02:21:26.773Z,101819.19
2022-10-13T02:23:53.216Z,101813.91
2022-10-13T02:26:19.860Z,101815.81
2022-10-13T02:28:46.295Z,101815.81
2022-10-13T02:31:12.761Z,101807.84
2022-10-13T02:33:39.238Z,101811.50
2022-10-13T02:36:07.100Z,101799.91
2022-10-13T02:38:33.550Z,101801.81
2022-10-13T02:41:00.893Z,101798.28
2022-10-13T02:43:27.625Z,101799.22
2022-10-13T02:45:54.181Z,101793.94
2022-10-13T02:48:20.669Z,101791.25
2022-10-13T02:50:47.100Z,101799.44
2022-10-13T02:53:14.917Z,101799.44
2022-10-13T02:55:41.521Z,101797.69
2022-10-13T02:58:08.195Z,101794.16
2022-10-13T03:00:34.656Z,101799.59
2022-10-13T03:03:01.315Z,101800.56
2022-10-13T03:05:27.810Z,101796.91
2022-10-13T03:07:54.320Z,101796.91
2022-10-13T03:10:22.263Z,101804.94
2022-10-13T03:12:48.652Z,101800.44
2022-10-13T03:15:15.303Z,101799.50
2022-10-13T03:17:41.771Z,101797.69
2022-10-13T03:20:09.467Z,101794.06
2022-10-13T03:22:35.924Z,101789.56
2022-10-13T03:25:02.372Z,101783.22
2022-10-13T03:27:30.126Z,101780.44
2022-10-13T03:29:56.595Z,101782.94
2022-10-13T03:32:23.282Z,101788.13
2022-10-13T03:34:50.339Z,101778.06
2022-10-13T03:37:16.962Z,101772.50
2022-10-13T03:39:43.686Z,101777.69
2022-10-13T03:42:10.633Z,101770.41
2022-10-13T03:44:38.456Z,101774.53
2022-10-13T03:47:04.952Z,101775.19
2022-10-13T03:49:31.388Z,101772.22
2022-10-13T03:51:57.817Z,101777.41
2022-10-13T03:54:24.292Z,101763.78
2022-10-13T03:56:50.709Z,101762.63
2022-10-13T03:59:17.114Z,101768.78
2022-10-13T04:01:44.980Z,101761.38
2022-10-13T04:04:11.881Z,101762.03
2022-10-13T04:06:38.843Z,101766.25
2022-10-13T04:09:05.487Z,101764.25
2022-10-13T04:11:32.154Z,101761.28
2022-10-13T04:13:58.693Z,101761.94
2022-10-13T04:16:26.781Z,101767.09
2022-10-13T04:18:56.377Z,101763.38
2022-10-13T04:21:23.686Z,101756.00
2022-10-13T04:23:50.648Z,101760.31
2022-10-13T04:26:18.108Z,101752.16
2022-10-13T04:28:45.544Z,101758.28
2022-10-13T04:31:12.129Z,101751.75
2022-10-13T04:33:38.570Z,101748.88
2022-10-13T04:36:08.557Z,101744.25
2022-10-13T04:38:35.016Z,101744.91
2022-10-13T04:41:02.594Z,101750.09
2022-10-13T04:43:29.042Z,101741.91
2022-10-13T04:49:24.218Z,101744.13
2022-10-13T04:51:52.039Z,101736.81
2022-10-13T04:54:18.592Z,101740.28
2022-10-13T04:56:45.153Z,101743.69
2022-10-13T04:59:11.914Z,101736.41
2022-10-13T05:01:38.580Z,101730.81
2022-10-13T05:04:05.401Z,101735.97
2022-10-13T05:06:34.345Z,101733.19
2022-10-13T05:09:02.252Z,101737.50
2022-10-13T05:11:29.215Z,101730.22
2022-10-13T05:13:56.176Z,101730.00
2022-10-13T05:16:23.956Z,101728.06
2022-10-13T05:18:52.496Z,101717.09
2022-10-13T05:21:21.234Z,101719.69
2022-10-13T05:23:48.131Z,101719.47
2022-10-13T05:26:17.918Z,101714.00
2022-10-13T05:28:45.197Z,101716.47
2022-10-13T05:31:13.585Z,101712.72
2022-10-13T05:33:40.723Z,101710.78
2022-10-13T05:36:08.796Z,101710.69
2022-10-13T05:38:35.232Z,101720.38
2022-10-13T05:41:02.781Z,101714.91
2022-10-13T05:43:32.008Z,101713.06
2022-10-13T05:45:58.474Z,101717.34
2022-10-13T05:48:25.019Z,101720.81
2022-10-13T05:50:51.681Z,101711.75
2022-10-13T05:53:19.316Z,101719.72
2022-10-13T05:55:45.934Z,101718.88
2022-10-13T05:58:12.414Z,101720.59
2022-10-13T06:00:42.587Z,101718.88
2022-10-13T06:03:12.654Z,101716.19
2022-10-13T06:05:39.551Z,101716.19
2022-10-13T06:08:06.297Z,101717.03
2022-10-13T06:10:32.740Z,101718.78
2022-10-13T06:12:59.169Z,101725.84
2022-10-13T06:15:28.154Z,101712.41
2022-10-13T06:17:56.188Z,101710.50
2022-10-13T06:20:22.623Z,101714.78
2022-10-13T06:22:49.116Z,101714.59
2022-10-13T06:25:15.783Z,101714.38
2022-10-13T06:27:42.464Z,101707.06
2022-10-13T06:30:09.728Z,101714.91
2022-10-13T06:32:36.165Z,101716.50
2022-10-13T06:35:04.758Z,101713.50
2022-10-13T06:37:31.209Z,101719.41
2022-10-13T06:39:57.632Z,101724.47
2022-10-13T06:42:24.082Z,101718.69
2022-10-13T06:44:50.481Z,101703.91
2022-10-13T06:47:16.911Z,101699.06
2022-10-13T06:49:43.302Z,101709.41
2022-10-13T06:52:11.158Z,101712.63
2022-10-13T06:54:37.594Z,101705.06
2022-10-13T06:57:05.802Z,101700.97
2022-10-13T06:59:33.417Z,101690.72
2022-10-13T07:01:59.832Z,101695.56
2022-10-13T07:04:26.661Z,101701.47
2022-10-13T07:06:53.184Z,101701.84
2022-10-13T07:09:21.003Z,101704.13
2022-10-13T07:11:47.714Z,101704.41
2022-10-13T07:14:14.218Z,101702.75
2022-10-13T07:16:40.720Z,101693.00
2022-10-13T07:19:07.539Z,101680.56
2022-10-13T07:21:34.456Z,101681.59
2022-10-13T07:24:02.283Z,101678.94
2022-10-13T07:26:30.105Z,101682.66
2022-10-13T07:28:56.594Z,101678.28
2022-10-13T07:31:23.117Z,101675.84
2022-10-13T07:33:50.591Z,101680.66
2022-10-13T07:36:17.540Z,101680.78
2022-10-13T07:38:44.238Z,101672.69
2022-10-13T07:41:11.585Z,101672.72
2022-10-13T07:43:40.028Z,101677.41
2022-10-13T07:46:07.749Z,101684.50
2022-10-13T07:48:35.523Z,101685.25
2022-10-13T07:51:04.695Z,101683.25
2022-10-13T07:53:31.216Z,101681.38
2022-10-13T07:56:00.010Z,101682.38
2022-10-13T07:58:26.556Z,101677.91
2022-10-13T08:00:59.417Z,101671.72
2022-10-13T08:03:26.815Z,101673.81
2022-10-13T08:05:53.566Z,101676.00
2022-10-13T08:08:20.303Z,101672.63
2022-10-13T08:10:46.846Z,101670.06
2022-10-13T08:13:13.466Z,101657.59
2022-10-13T08:15:40.547Z,101651.41
2022-10-13T08:18:09.038Z,101653.19
2022-10-13T08:20:41.283Z,101661.25
2022-10-13T08:23:10.371Z,101652.31
2022-10-13T08:25:37.517Z,101657.94
2022-10-13T08:28:04.325Z,101653.44
2022-10-13T08:30:31.069Z,101647.22
2022-10-13T08:32:57.616Z,101650.81
2022-10-13T08:35:25.466Z,101645.59
2022-10-13T08:37:54.764Z,101654.59
2022-10-13T08:40:22.219Z,101643.91
2022-10-13T08:42:49.042Z,101633.97
2022-10-13T08:48:11.821Z,101632.91
2022-10-13T08:50:42.858Z,101625.81
2022-10-13T08:53:14.633Z,101624.97
2022-10-13T08:55:43.413Z,101623.25
2022-10-13T08:58:14.877Z,101609.97
2022-10-13T09:00:41.719Z,101618.41
2022-10-13T09:03:27.546Z,101614.97
2022-10-13T09:06:06.284Z,101618.84
2022-10-13T09:08:40.653Z,101609.97
2022-10-13T09:11:09.650Z,101625.53
2022-10-13T09:13:36.125Z,101618.38
2022-10-13T09:16:02.629Z,101628.22
2022-10-13T09:18:31.208Z,101613.06
2022-10-13T09:21:16.795Z,101615.75
2022-10-13T09:23:43.292Z,101610.97
2022-10-13T09:26:37.306Z,101614.53
2022-10-13T09:32:16.773Z,101623.03
2022-10-13T09:34:43.303Z,101615.84
2022-10-13T09:37:19.839Z,101622.97
2022-10-13T09:39:46.414Z,101624.59
2022-10-13T09:42:24.793Z,101622.81
2022-10-13T09:44:58.075Z,101622.78
2022-10-13T09:47:25.038Z,101618.13
2022-10-13T09:50:06.364Z,101617.22
2022-10-13T09:52:35.323Z,101618.84
2022-10-13T09:55:01.782Z,101619.75
2022-10-13T09:57:34.018Z,101620.69
2022-10-13T10:00:05.433Z,101608.72
2022-10-13T10:02:35.925Z,101615.84
2022-10-13T10:05:07.080Z,101610.44
2022-10-13T10:07:34.815Z,101610.34
2022-10-13T10:10:05.006Z,101607.69
2022-10-13T10:12:35.184Z,101598.72
2022-10-13T10:15:01.673Z,101598.09
2022-10-13T10:17:34.952Z,101597.09
2022-10-13T10:20:13.064Z,101594.44
2022-10-13T10:22:47.648Z,101589.88
2022-10-13T10:25:25.900Z,101582.75
2022-10-13T10:28:16.415Z,101578.69
2022-10-13T10:30:49.507Z,101577.00
2022-10-13T10:33:21.511Z,101576.88
2022-10-13T10:35:52.319Z,101570.28
2022-10-13T10:38:32.332Z,101564.69
2022-10-13T10:41:07.679Z,101567.97
2022-10-13T10:43:45.644Z,101563.41
2022-10-13T10:46:16.685Z,101553.34
2022-10-13T10:48:45.138Z,101546.19
2022-10-13T10:51:12.910Z,101540.22
2022-10-13T10:53:55.824Z,101546.34
2022-10-13T10:56:30.334Z,101536.09
2022-10-13T10:59:05.077Z,101537.78
2022-10-13T11:01:37.750Z,101537.25
2022-10-13T11:04:30.441Z,101534.91
2022-10-13T11:06:56.947Z,101533.69
2022-10-13T11:09:56.785Z,101534.38
2022-10-13T11:12:25.337Z,101536.75
2022-10-13T11:15:08.461Z,101534.03
2022-10-13T11:17:36.412Z,101533.00
2022-10-13T11:20:41.393Z,101528.88
2022-10-13T11:23:34.183Z,101517.25
2022-10-13T11:26:43.136Z,101510.38
2022-10-13T11:29:18.393Z,101497.66
2022-10-13T11:31:52.187Z,101498.59
2022-10-13T11:34:31.098Z,101495.78
2022-10-13T11:37:00.213Z,101492.97
2022-10-13T11:40:03.347Z,101492.63
2022-10-13T11:42:48.398Z,101477.03
2022-10-13T11:45:29.720Z,101471.94
2022-10-13T11:48:13.460Z,101481.69
2022-10-13T11:50:42.297Z,101471.22
2022-10-13T11:53:18.099Z,101478.56
2022-10-13T11:55:50.142Z,101473.56
2022-10-13T11:58:19.008Z,101475.09
2022-10-13T12:00:57.108Z,101487.19
2022-10-13T12:03:27.694Z,101484.91
2022-10-13T12:05:57.619Z,101490.69
2022-10-13T12:08:25.565Z,101487.41
2022-10-13T12:10:55.053Z,101481.38
2022-10-13T12:13:24.577Z,101481.31
2022-10-13T12:15:57.733Z,101478.03
2022-10-13T12:18:26.978Z,101485.69
2022-10-13T12:20:54.384Z,101475.41
2022-10-13T12:23:21.740Z,101468.91
2022-10-13T12:25:49.788Z,101471.81
2022-10-13T12:28:19.577Z,101473.53
2022-10-13T12:30:52.120Z,101482.78
2022-10-13T12:33:25.916Z,101482.28
2022-10-13T12:35:52.313Z,101473.41
2022-10-13T12:38:20.572Z,101481.81
2022-10-13T12:40:48.202Z,101488.50
2022-10-13T12:43:18.374Z,101482.38
2022-10-13T12:45:46.646Z,101474.16
2022-10-13T12:48:29.945Z,101488.50
2022-10-13T12:51:08.518Z,101487.84
2022-10-13T12:53:37.690Z,101480.66
2022-10-13T12:56:22.588Z,101476.91
2022-10-13T12:58:49.132Z,101479.25
2022-10-13T13:01:29.514Z,101480.59
2022-10-13T13:03:58.792Z,101477.66
2022-10-13T13:06:34.174Z,101468.78
2022-10-13T13:09:23.316Z,101472.06
2022-10-13T13:12:03.724Z,101470.34
2022-10-13T13:14:37.788Z,101470.34
2022-10-13T13:17:11.021Z,101464.53
2022-10-13T13:19:38.450Z,101463.47
2022-10-13T13:22:05.954Z,101455.06
2022-10-13T13:24:40.228Z,101461.59
2022-10-13T13:27:19.491Z,101447.72
2022-10-13T13:29:46.505Z,101445.84
2022-10-13T13:32:19.853Z,101436.59
2022-10-13T13:34:46.645Z,101432.63
2022-10-13T13:37:16.978Z,101427.81
2022-10-13T13:39:43.786Z,101428.47
2022-10-13T13:42:14.532Z,101432.53
2022-10-13T13:44:40.995Z,101431.56
2022-10-13T13:47:16.692Z,101435.94
2022-10-13T13:49:43.102Z,101430.84
2022-10-13T13:52:09.561Z,101428.00
2022-10-13T13:54:36.029Z,101419.44
2022-10-13T13:57:02.541Z,101420.75
2022-10-13T13:59:29.035Z,101414.88
2022-10-13T14:01:55.511Z,101407.34
2022-10-13T14:04:23.382Z,101409.88
2022-10-13T14:06:50.973Z,101405.03
2022-10-13T14:09:17.400Z,101395.97
2022-10-13T14:11:43.882Z,101391.56
2022-10-13T14:14:10.386Z,101398.25
2022-10-13T14:16:36.815Z,101391.63
2022-10-13T14:19:03.405Z,101392.03
2022-10-13T14:21:31.887Z,101400.44
2022-10-13T14:23:58.453Z,101394.13
2022-10-13T14:26:24.886Z,101396.88
2022-10-13T14:28:51.409Z,101396.66
2022-10-13T14:31:17.881Z,101390.31
2022-10-13T14:33:44.337Z,101384.84
2022-10-13T14:36:10.829Z,101383.16
2022-10-13T14:38:38.671Z,101389.47
2022-10-13T14:41:06.167Z,101383.31
2022-10-13T14:43:33.325Z,101385.03
2022-10-13T14:46:01.950Z,101380.97
2022-10-13T14:48:30.302Z,101381.53
2022-10-13T14:50:56.717Z,101373.19
2022-10-13T14:53:23.491Z,101377.75
2022-10-13T14:55:51.255Z,101375.09
2022-10-13T14:58:17.720Z,101373.28
2022-10-13T15:00:44.699Z,101371.72
2022-10-13T15:03:11.282Z,101376.59
2022-10-13T15:05:38.364Z,101390.38
2022-10-13T15:08:05.415Z,101387.53
2022-10-13T15:10:31.966Z,101393.56
2022-10-13T15:12:59.953Z,101390.03
2022-10-13T15:15:26.622Z,101393.72
2022-10-13T15:17:54.024Z,101401.75
2022-10-13T15:20:20.569Z,101401.66
2022-10-13T15:22:47.247Z,101404.63
2022-10-13T15:25:14.127Z,101405.53
2022-10-13T15:27:42.148Z,101402.88
2022-10-13T15:30:11.450Z,101413.88
2022-10-13T15:32:37.915Z,101410.34
2022-10-13T15:35:05.410Z,101407.84
2022-10-13T15:37:31.956Z,101408.75
2022-10-13T15:39:58.445Z,101402.47
2022-10-13T15:42:24.935Z,101404.19
2022-10-13T15:45:08.713Z,101395.38
2022-10-13T15:47:37.638Z,101406.28
2022-10-13T15:50:04.580Z,101400.84
2022-10-13T15:52:34.988Z,101403.63
2022-10-13T15:55:01.803Z,101398.84
2022-10-13T15:57:28.412Z,101392.56
2022-10-13T15:59:54.880Z,101400.63
2022-10-13T16:02:22.056Z,101400.63
2022-10-13T16:08:36.865Z,101403.56
2022-10-13T16:11:08.206Z,101393.53
2022-10-13T16:13:34.642Z,101397.28
2022-10-13T16:16:01.627Z,101390.13
2022-10-13T16:18:29.393Z,101393.72
2022-10-13T16:20:56.404Z,101399.97
2022-10-13T16:23:23.315Z,101398.28
2022-10-13T16:25:52.032Z,101398.47
2022-10-13T16:28:18.524Z,101395.91
2022-10-13T16:30:45.045Z,101391.28
2022-10-13T16:33:11.550Z,101401.31
2022-10-13T16:35:38.143Z,101394.81
2022-10-13T16:38:04.639Z,101396.69
2022-10-13T16:40:31.070Z,101397.50
2022-10-13T16:42:58.869Z,101398.34
2022-10-13T16:45:41.358Z,101394.56
2022-10-13T16:48:11.866Z,101402.72
2022-10-13T16:50:38.371Z,101404.22
2022-10-13T16:53:04.777Z,101403.16
2022-10-13T16:55:31.296Z,101397.69
2022-10-13T16:57:59.101Z,101395.59
2022-10-13T17:00:25.605Z,101396.41
2022-10-13T17:02:52.137Z,101394.50
2022-10-13T17:05:18.760Z,101394.97
2022-10-13T17:07:45.214Z,101393.06
2022-10-13T17:10:11.824Z,101389.13
2022-10-13T17:12:38.273Z,101387.88
2022-10-13T17:15:07.041Z,101389.22
2022-10-13T17:17:33.478Z,101383.59
2022-10-13T17:19:59.972Z,101391.19
2022-10-13T17:22:26.561Z,101390.00
2022-10-13T17:24:53.033Z,101395.19
2022-10-13T17:27:19.917Z,101396.66
2022-10-13T17:29:46.558Z,101390.88
2022-10-13T17:32:14.377Z,101388.78
2022-10-13T17:34:40.812Z,101399.25
2022-10-13T17:37:07.264Z,101403.47
2022-10-13T17:39:33.745Z,101401.22
2022-10-13T17:42:00.343Z,101392.84
2022-10-13T17:44:26.801Z,101397.19
2022-10-13T17:46:53.227Z,101399.69
2022-10-13T17:49:21.096Z,101394.69
2022-10-13T17:51:51.506Z,101389.69
2022-10-13T17:54:18.788Z,101392.72
2022-10-13T17:56:45.545Z,101386.91
2022-10-13T17:59:12.545Z,101386.38
2022-10-13T18:01:39.077Z,101391.41
2022-10-13T18:04:07.938Z,101392.72
2022-10-13T18:06:38.790Z,101385.88
2022-10-13T18:09:06.559Z,101381.78
2022-10-13T18:11:33.048Z,101381.22
2022-10-13T18:13:59.923Z,101370.50
2022-10-13T18:16:26.687Z,101373.53
2022-10-13T18:18:54.197Z,101376.53
2022-10-13T18:21:22.463Z,101378.88
2022-10-13T18:23:50.426Z,101376.44
2022-10-13T18:26:18.632Z,101378.63
2022-10-13T18:28:46.690Z,101383.50
2022-10-13T18:31:15.612Z,101382.97
2022-10-13T18:33:42.204Z,101384.09
2022-10-13T18:36:13.971Z,101388.13
2022-10-13T18:38:40.458Z,101383.16
2022-10-13T18:41:08.652Z,101378.16
2022-10-13T18:43:35.140Z,101373.06
2022-10-13T18:46:02.673Z,101377.75
2022-10-13T18:48:29.396Z,101384.34
2022-10-13T18:50:55.928Z,101380.09
2022-10-13T18:53:22.827Z,101383.94
2022-10-13T18:55:49.280Z,101377.97
2022-10-13T18:58:18.204Z,101381.97
2022-10-13T19:00:44.803Z,101376.88
2022-10-13T19:03:11.266Z,101373.75
2022-10-13T19:05:37.818Z,101371.47
2022-10-13T19:08:04.543Z,101365.50
2022-10-13T19:10:30.999Z,101364.91
2022-10-13T19:12:57.452Z,101371.50
2022-10-13T19:15:25.286Z,101363.66
2022-10-13T19:17:51.954Z,101367.50
2022-10-13T19:20:18.652Z,101366.97
2022-10-13T19:22:45.072Z,101359.25
2022-10-13T19:25:11.530Z,101356.84
2022-10-13T19:27:38.077Z,101366.94
2022-10-13T19:30:05.477Z,101371.81
2022-10-13T19:32:33.361Z,101370.41
2022-10-13T19:35:00.374Z,101372.53
2022-10-13T19:37:26.846Z,101359.44
2022-10-13T19:39:53.326Z,101357.03
2022-10-13T19:42:19.733Z,101360.00
2022-10-13T19:44:46.167Z,101365.03
2022-10-13T19:47:12.596Z,101355.31
2022-10-13T19:49:40.389Z,101364.75
2022-10-13T19:52:06.854Z,101355.06
2022-10-13T19:54:34.141Z,101352.78
2022-10-13T19:57:00.691Z,101360.47
2022-10-13T19:59:27.635Z,101363.63
2022-10-13T20:01:54.159Z,101354.06
2022-10-13T20:04:20.744Z,101358.06
2022-10-13T20:06:49.183Z,101364.78
2022-10-13T20:09:16.176Z,101368.75
2022-10-13T20:11:43.934Z,101361.91
2022-10-13T20:14:10.709Z,101360.47
2022-10-13T20:16:37.242Z,101363.59
2022-10-13T20:19:04.661Z,101368.44
2022-10-13T20:21:31.186Z,101370.72
2022-10-13T20:23:59.069Z,101367.44
2022-10-13T20:26:26.213Z,101367.88
2022-10-13T20:28:53.612Z,101368.16
2022-10-13T20:31:21.892Z,101371.16
2022-10-13T20:33:52.394Z,101369.72
2022-10-13T20:36:18.939Z,101371.81
2022-10-13T20:38:47.757Z,101366.69
2022-10-13T20:41:19.525Z,101372.53
2022-10-13T20:43:46.341Z,101366.41
2022-10-13T20:46:12.838Z,101359.28
2022-10-13T20:49:08.773Z,101359.56
2022-10-13T20:51:28.052Z,101363.28
2022-10-13T20:53:54.533Z,101365.25
2022-10-13T20:56:23.867Z,101362.69
2022-10-13T20:58:51.515Z,101369.94
2022-10-13T21:01:19.615Z,101369.22
2022-10-13T21:03:46.627Z,101366.66
2022-10-13T21:06:14.416Z,101369.50
2022-10-13T21:08:44.435Z,101366.06
2022-10-13T21:11:13.518Z,101362.66
2022-10-13T21:13:42.500Z,101359.22
2022-10-13T21:16:11.913Z,101363.06
2022-10-13T21:18:38.358Z,101362.34
2022-10-13T21:21:06.581Z,101360.78
2022-10-13T21:23:33.679Z,101358.06
2022-10-13T21:26:05.024Z,101355.50
2022-10-13T21:28:32.208Z,101361.91
2022-10-13T21:31:01.781Z,101351.22
2022-10-13T21:33:28.268Z,101353.06
2022-10-13T21:35:54.793Z,101347.09
2022-10-13T21:38:21.253Z,101350.78
2022-10-13T21:40:51.633Z,101350.78
2022-10-13T21:43:20.251Z,101361.69
2022-10-13T21:45:46.710Z,101359.16
2022-10-13T21:48:14.645Z,101363.81
2022-10-13T21:50:41.484Z,101364.81
2022-10-13T21:53:07.976Z,101371.34
2022-10-13T21:55:34.389Z,101367.09
2022-10-13T21:58:05.016Z,101371.75
2022-10-13T22:00:32.547Z,101364.91
2022-10-13T22:02:59.097Z,101365.03
2022-10-13T22:05:26.869Z,101368.03
2022-10-13T22:07:53.328Z,101367.28
2022-10-13T22:10:19.847Z,101365.72
2022-10-13T22:12:46.382Z,101375.81
2022-10-13T22:15:12.843Z,101368.94
2022-10-13T22:17:39.263Z,101366.41
2022-10-13T22:20:06.319Z,101371.94
2022-10-13T22:22:34.049Z,101374.06
2022-10-13T22:25:00.460Z,101375.03
2022-10-13T22:27:26.852Z,101369.78
2022-10-13T22:29:53.522Z,101368.19
2022-10-13T22:32:19.928Z,101366.63
2022-10-13T22:34:46.368Z,101354.97
2022-10-13T22:37:12.814Z,101357.78
2022-10-13T22:39:40.598Z,101363.19
2022-10-13T22:42:07.029Z,101353.34
2022-10-13T22:44:33.536Z,101355.34
2022-10-13T22:46:59.979Z,101355.34
2022-10-13T22:49:26.716Z,101353.63
2022-10-13T22:51:53.110Z,101352.06
2022-10-13T22:54:19.578Z,101364.56
2022-10-13T22:56:47.384Z,101360.28
2022-10-13T22:59:13.906Z,101349.78
2022-10-13T23:01:40.454Z,101348.91
2022-10-13T23:04:06.928Z,101358.84
2022-10-13T23:06:35.110Z,101351.03
2022-10-13T23:09:03.315Z,101348.44
2022-10-13T23:11:29.755Z,101352.13
2022-10-13T23:13:57.830Z,101350.56
2022-10-13T23:16:25.983Z,101348.84
2022-10-13T23:18:52.883Z,101354.38
2022-10-13T23:21:20.895Z,101352.81
2022-10-13T23:23:48.048Z,101341.25
2022-10-13T23:26:17.173Z,101352.22
2022-10-13T23:28:44.305Z,101345.22
2022-10-13T23:31:14.894Z,101342.78
2022-10-13T23:33:41.759Z,101344.78
2022-10-13T23:36:12.074Z,101346.00
2022-10-13T23:38:38.499Z,101342.72
2022-10-13T23:41:06.833Z,101341.16
2022-10-13T23:43:33.661Z,101343.25
2022-10-13T23:46:00.476Z,101339.97
2022-10-13T23:48:28.909Z,101332.13
2022-10-13T23:50:56.121Z,101327.97
2022-10-13T23:53:22.756Z,101335.47
2022-10-13T23:55:49.224Z,101331.22
2022-10-13T23:58:15.787Z,101329.59
